Terminal Aerodrome Forecast
Issued by NWS Pocatello, ID

Home | Current Version | Previous Version | Text Only | Print | Product List | Glossary On
Versions: 1 2 3 4 5 6 7 8 9 10 11 12 13 14 15 16 17 18 19
000
FTUS45 KPIH 222320
TAFPIH
TAF
KPIH 222320Z 2300/2324 27009KT P6SM -SHRA VCTS SCT070CB OVC100
     FM230400 21007KT P6SM VCSH BKN070 BKN180
     FM230800 18015KT P6SM -SHRA BKN025 OVC060
     FM231800 08008KT P6SM -SHRA OVC040=

USA.gov is the U.S. government's official web portal to all federal, state and local government web resources and services.